createdAt,value
2017-03-11T00:00:25.968Z,0
2017-03-11T00:01:06.702Z,0
2017-03-11T00:01:47.378Z,0
2017-03-11T00:02:28.024Z,0
2017-03-11T00:03:08.714Z,0
2017-03-11T00:03:49.549Z,0
2017-03-11T00:04:30.201Z,0
2017-03-11T00:05:10.825Z,0
2017-03-11T00:05:51.497Z,0
2017-03-11T00:06:32.115Z,0
2017-03-11T00:07:12.866Z,0
2017-03-11T00:07:53.593Z,0
2017-03-11T00:08:34.219Z,0
2017-03-11T00:09:14.908Z,0
2017-03-11T00:09:55.524Z,0
2017-03-11T00:10:36.182Z,0
2017-03-11T00:11:16.860Z,0
2017-03-11T00:11:57.498Z,0
2017-03-11T00:12:38.149Z,0
2017-03-11T00:13:18.791Z,0
2017-03-11T00:13:59.513Z,0
2017-03-11T00:14:40.139Z,0
2017-03-11T00:15:20.857Z,0
2017-03-11T00:16:01.444Z,0
2017-03-11T00:16:42.224Z,0
2017-03-11T00:17:22.864Z,0
2017-03-11T00:18:03.572Z,0
2017-03-11T00:18:44.269Z,0
2017-03-11T00:19:25.178Z,0
2017-03-11T00:20:05.876Z,0
2017-03-11T00:20:46.698Z,0
2017-03-11T00:21:27.403Z,0
2017-03-11T00:22:08.146Z,0
2017-03-11T00:22:48.811Z,0
2017-03-11T00:23:29.529Z,0
2017-03-11T00:24:10.376Z,0
2017-03-11T00:24:51.067Z,0
2017-03-11T00:25:31.867Z,0
2017-03-11T00:26:12.616Z,0
2017-03-11T00:26:53.287Z,0
2017-03-11T00:27:34.089Z,0
2017-03-11T00:28:14.934Z,0
2017-03-11T00:28:55.537Z,0
2017-03-11T00:29:36.209Z,0
2017-03-11T00:30:16.944Z,0
2017-03-11T00:30:57.743Z,0
2017-03-11T00:31:38.262Z,0
2017-03-11T00:32:18.949Z,0
2017-03-11T00:32:59.682Z,0
2017-03-11T00:33:40.430Z,0
2017-03-11T00:34:21.105Z,0
2017-03-11T00:35:01.856Z,0
2017-03-11T00:35:42.538Z,0
2017-03-11T00:36:23.105Z,0
2017-03-11T00:37:03.853Z,0
2017-03-11T00:37:44.636Z,0
2017-03-11T00:38:25.203Z,0
2017-03-11T00:39:05.925Z,0
2017-03-11T00:39:46.594Z,0
2017-03-11T00:40:27.224Z,0
2017-03-11T00:41:07.961Z,0
2017-03-11T00:41:48.634Z,0
2017-03-11T00:42:29.284Z,0
2017-03-11T00:43:09.968Z,0
2017-03-11T00:43:50.605Z,0
2017-03-11T00:44:31.273Z,0
2017-03-11T00:45:12.055Z,0
2017-03-11T00:45:52.650Z,0
2017-03-11T00:46:33.408Z,0
2017-03-11T00:47:14.143Z,0
2017-03-11T00:47:54.789Z,0
2017-03-11T00:48:35.555Z,0
2017-03-11T00:49:16.216Z,0
2017-03-11T00:49:56.979Z,0
2017-03-11T00:50:37.652Z,0
2017-03-11T00:51:18.325Z,0
2017-03-11T00:51:59.026Z,0
2017-03-11T00:52:39.604Z,0
2017-03-11T00:53:20.322Z,0
2017-03-11T00:54:01.003Z,0
2017-03-11T00:54:41.623Z,0
2017-03-11T00:55:22.359Z,0
2017-03-11T00:56:03.026Z,0
2017-03-11T00:56:43.622Z,0
2017-03-11T00:57:24.286Z,0
2017-03-11T00:58:05.023Z,0
2017-03-11T00:58:45.774Z,0
2017-03-11T00:59:26.385Z,0
2017-03-11T01:00:07.046Z,0
2017-03-11T01:00:47.712Z,0
2017-03-11T01:01:28.481Z,0
2017-03-11T01:02:09.169Z,0
2017-03-11T01:02:49.801Z,0
2017-03-11T01:03:30.515Z,0
2017-03-11T01:04:11.166Z,0
2017-03-11T01:04:51.859Z,0
2017-03-11T01:05:32.536Z,0
2017-03-11T01:06:13.187Z,0
2017-03-11T01:06:53.920Z,0
2017-03-11T01:07:34.540Z,0
2017-03-11T01:08:15.237Z,0
2017-03-11T01:08:56.068Z,0
2017-03-11T01:09:36.734Z,0
2017-03-11T01:10:17.454Z,0
2017-03-11T01:10:58.206Z,0
2017-03-11T01:11:38.955Z,0
2017-03-11T01:12:19.763Z,0
2017-03-11T01:13:00.426Z,0
2017-03-11T01:13:41.083Z,0
2017-03-11T01:14:21.748Z,0
2017-03-11T01:15:02.487Z,0
2017-03-11T01:15:43.203Z,0
2017-03-11T01:16:23.901Z,0
2017-03-11T01:17:04.573Z,0
2017-03-11T01:17:45.216Z,0
2017-03-11T01:18:25.893Z,0
2017-03-11T01:19:06.701Z,0
2017-03-11T01:19:47.386Z,0
2017-03-11T01:20:28.033Z,0
2017-03-11T01:21:08.675Z,0
2017-03-11T01:21:49.300Z,0
2017-03-11T01:22:30.001Z,0
2017-03-11T01:23:10.696Z,0
2017-03-11T01:23:51.386Z,0
2017-03-11T01:24:32.212Z,0
2017-03-11T01:25:12.819Z,0
2017-03-11T01:25:53.468Z,0
2017-03-11T01:26:34.137Z,0
2017-03-11T01:27:14.892Z,0
2017-03-11T01:27:55.635Z,0
2017-03-11T01:28:36.243Z,0
2017-03-11T01:29:16.915Z,0
2017-03-11T01:29:57.690Z,0
2017-03-11T01:30:38.386Z,0
2017-03-11T01:31:19.002Z,0
2017-03-11T01:31:59.671Z,0
2017-03-11T01:32:40.388Z,0
2017-03-11T01:33:21.159Z,0
2017-03-11T01:34:02.000Z,0
2017-03-11T01:34:42.553Z,0
2017-03-11T01:35:23.188Z,0
2017-03-11T01:36:04.086Z,0
2017-03-11T01:36:44.825Z,0
2017-03-11T01:37:25.442Z,0
2017-03-11T01:38:06.226Z,0
2017-03-11T01:38:46.847Z,0
2017-03-11T01:39:27.564Z,0
2017-03-11T01:40:08.165Z,0
2017-03-11T01:40:48.834Z,0
2017-03-11T01:41:29.521Z,0
2017-03-11T01:42:10.223Z,0
2017-03-11T01:42:50.969Z,0
2017-03-11T01:43:31.578Z,0
2017-03-11T01:44:12.252Z,0
2017-03-11T01:44:52.849Z,0
2017-03-11T01:45:33.480Z,0
2017-03-11T01:46:14.158Z,0
2017-03-11T01:46:54.828Z,0
2017-03-11T01:47:35.565Z,0
2017-03-11T01:48:16.232Z,0
2017-03-11T01:48:56.890Z,0
2017-03-11T01:49:37.621Z,0
2017-03-11T01:50:18.200Z,0
2017-03-11T01:50:58.980Z,0
2017-03-11T01:51:39.532Z,0
2017-03-11T01:52:20.225Z,0
2017-03-11T01:53:00.914Z,0
2017-03-11T01:53:41.548Z,0
2017-03-11T01:54:22.165Z,0
2017-03-11T01:55:02.872Z,0
2017-03-11T01:55:43.516Z,0
2017-03-11T01:56:24.215Z,0
2017-03-11T01:57:04.854Z,0
2017-03-11T01:57:45.551Z,0
2017-03-11T01:58:26.260Z,0
2017-03-11T01:59:06.936Z,0
2017-03-11T01:59:47.611Z,0
2017-03-11T02:00:28.305Z,0
2017-03-11T02:01:08.969Z,0
2017-03-11T02:01:49.633Z,0
2017-03-11T02:02:30.314Z,0
2017-03-11T02:03:10.955Z,0
2017-03-11T02:03:51.564Z,0
2017-03-11T02:04:32.218Z,0
2017-03-11T02:05:12.859Z,0
2017-03-11T02:05:53.485Z,0
2017-03-11T02:06:34.129Z,0
2017-03-11T02:07:14.846Z,0
2017-03-11T02:07:55.509Z,0
2017-03-11T02:08:36.180Z,0
2017-03-11T02:09:16.838Z,0
2017-03-11T02:09:57.482Z,0
2017-03-11T02:10:38.127Z,0
2017-03-11T02:11:18.822Z,0
2017-03-11T02:11:59.603Z,0
2017-03-11T02:12:40.269Z,0
2017-03-11T02:13:20.976Z,0
2017-03-11T02:14:01.694Z,0
2017-03-11T02:14:42.322Z,0
2017-03-11T02:15:22.959Z,0
2017-03-11T02:16:03.613Z,0
2017-03-11T02:16:44.281Z,0
2017-03-11T02:17:24.889Z,0
2017-03-11T02:18:05.489Z,0
2017-03-11T02:18:46.165Z,0
2017-03-11T02:19:26.904Z,0
2017-03-11T02:20:07.680Z,0
2017-03-11T02:20:48.257Z,0
2017-03-11T02:21:28.893Z,0
2017-03-11T02:22:09.606Z,0
2017-03-11T02:22:50.266Z,0
2017-03-11T02:23:30.931Z,0
2017-03-11T02:24:11.597Z,0
2017-03-11T02:24:52.241Z,0
2017-03-11T02:25:32.936Z,0
2017-03-11T02:26:13.651Z,0
2017-03-11T02:26:54.344Z,0
2017-03-11T02:27:35.078Z,0
2017-03-11T02:28:15.730Z,0
2017-03-11T02:28:56.385Z,0
2017-03-11T02:29:37.070Z,0
2017-03-11T02:30:17.803Z,0
2017-03-11T02:30:58.381Z,0
2017-03-11T02:31:39.020Z,0
2017-03-11T02:32:19.633Z,0
2017-03-11T02:33:00.333Z,0
2017-03-11T02:33:41.016Z,0
2017-03-11T02:34:21.683Z,0
2017-03-11T02:35:02.308Z,0
2017-03-11T02:35:42.962Z,0
2017-03-11T02:36:23.631Z,0
2017-03-11T02:37:04.263Z,0
2017-03-11T02:37:44.887Z,0
2017-03-11T02:38:25.541Z,0
2017-03-11T02:39:06.324Z,0
2017-03-11T02:39:46.865Z,0
2017-03-11T02:40:27.503Z,0
2017-03-11T02:41:08.160Z,0
2017-03-11T02:41:48.793Z,0
2017-03-11T02:42:29.426Z,0
2017-03-11T02:43:10.109Z,0
2017-03-11T02:43:50.789Z,0
2017-03-11T02:44:31.464Z,0
2017-03-11T02:45:12.086Z,0
2017-03-11T02:45:52.688Z,0
2017-03-11T02:46:33.377Z,0
2017-03-11T02:47:14.057Z,0
2017-03-11T02:47:54.681Z,0
2017-03-11T02:48:35.349Z,0
2017-03-11T02:49:16.089Z,0
2017-03-11T02:49:56.730Z,0
2017-03-11T02:50:37.476Z,0
2017-03-11T02:51:18.129Z,0
2017-03-11T02:51:58.765Z,0
2017-03-11T02:52:39.465Z,0
2017-03-11T02:53:20.142Z,0
2017-03-11T02:54:00.896Z,0
2017-03-11T02:54:41.472Z,0
2017-03-11T02:55:22.210Z,0
2017-03-11T02:56:03.110Z,0
2017-03-11T02:56:43.926Z,0
2017-03-11T02:57:24.618Z,0
2017-03-11T02:58:05.236Z,0
2017-03-11T02:58:45.921Z,0
2017-03-11T02:59:26.604Z,0
2017-03-11T03:00:07.251Z,0
2017-03-11T03:00:48.032Z,0
2017-03-11T03:01:28.708Z,0
2017-03-11T03:02:09.399Z,0
2017-03-11T03:02:50.056Z,0
2017-03-11T03:03:30.718Z,0
2017-03-11T03:04:11.398Z,0
2017-03-11T03:04:52.058Z,0
2017-03-11T03:05:32.771Z,0
2017-03-11T03:06:13.441Z,0
2017-03-11T03:06:54.320Z,0
2017-03-11T03:07:35.000Z,0
2017-03-11T03:08:15.693Z,0
2017-03-11T03:08:56.338Z,0
2017-03-11T03:09:36.990Z,0
2017-03-11T03:10:17.619Z,0
2017-03-11T03:10:58.342Z,0
2017-03-11T03:11:38.970Z,0
2017-03-11T03:12:19.658Z,0
2017-03-11T03:13:00.311Z,0
2017-03-11T03:13:40.965Z,0
2017-03-11T03:14:21.622Z,0
2017-03-11T03:15:02.267Z,0
2017-03-11T03:15:42.885Z,0
2017-03-11T03:16:23.551Z,0
2017-03-11T03:17:04.189Z,0
2017-03-11T03:17:44.834Z,0
2017-03-11T03:18:25.489Z,0
2017-03-11T03:19:06.127Z,0
2017-03-11T03:19:46.778Z,0
2017-03-11T03:20:27.467Z,0
2017-03-11T03:21:08.158Z,0
2017-03-11T03:21:48.796Z,0
2017-03-11T03:22:29.452Z,0
2017-03-11T03:23:10.147Z,0
2017-03-11T03:23:50.896Z,0
2017-03-11T03:24:31.610Z,0
2017-03-11T03:25:12.290Z,0
2017-03-11T03:25:53.023Z,0
2017-03-11T03:26:33.677Z,0
2017-03-11T03:27:14.339Z,0
2017-03-11T03:27:54.975Z,0
2017-03-11T03:28:35.666Z,0
2017-03-11T03:29:16.302Z,0
2017-03-11T03:29:56.951Z,0
2017-03-11T03:30:37.602Z,0
2017-03-11T03:31:18.250Z,0
2017-03-11T03:31:58.890Z,0
2017-03-11T03:32:39.555Z,0
2017-03-11T03:33:20.216Z,0
2017-03-11T03:34:00.887Z,0
2017-03-11T03:34:41.673Z,0
2017-03-11T03:35:22.311Z,0
2017-03-11T03:36:02.963Z,0
2017-03-11T03:36:43.614Z,0
2017-03-11T03:37:24.277Z,0
2017-03-11T03:38:04.896Z,0
2017-03-11T03:38:45.535Z,0
2017-03-11T03:39:26.169Z,0
2017-03-11T03:40:06.797Z,0
2017-03-11T03:40:47.421Z,0
2017-03-11T03:41:28.090Z,0
2017-03-11T03:42:08.736Z,0
2017-03-11T03:42:49.408Z,0
2017-03-11T03:43:30.111Z,0
2017-03-11T03:44:10.786Z,0
2017-03-11T03:44:51.478Z,0
2017-03-11T03:45:32.106Z,0
2017-03-11T03:46:12.777Z,0
2017-03-11T03:46:53.464Z,0
2017-03-11T03:47:34.119Z,0
2017-03-11T03:48:14.803Z,0
2017-03-11T03:48:55.491Z,0
2017-03-11T03:49:36.128Z,0
2017-03-11T03:50:16.750Z,0
2017-03-11T03:50:57.413Z,0
2017-03-11T03:51:38.077Z,0
2017-03-11T03:52:18.719Z,0
2017-03-11T03:52:59.415Z,0
2017-03-11T03:53:40.121Z,0
2017-03-11T03:54:20.778Z,0
2017-03-11T03:55:01.481Z,0
2017-03-11T03:55:42.144Z,0
2017-03-11T03:56:22.789Z,0
2017-03-11T03:57:03.406Z,0
2017-03-11T03:57:44.081Z,0
2017-03-11T03:58:24.737Z,0
2017-03-11T03:59:05.391Z,0
2017-03-11T03:59:46.039Z,0
2017-03-11T04:00:26.698Z,0
2017-03-11T04:01:07.324Z,0
2017-03-11T04:01:48.001Z,0
2017-03-11T04:02:28.721Z,0
2017-03-11T04:03:09.423Z,0
2017-03-11T04:03:50.163Z,0
2017-03-11T04:04:30.800Z,0
2017-03-11T04:05:11.574Z,0
2017-03-11T04:05:52.188Z,0
2017-03-11T04:06:32.849Z,0
2017-03-11T04:07:13.494Z,0
2017-03-11T04:07:54.217Z,0
2017-03-11T04:08:34.813Z,0
2017-03-11T04:09:15.548Z,0
2017-03-11T04:09:56.157Z,0
2017-03-11T04:10:36.799Z,0
2017-03-11T04:11:17.454Z,0
2017-03-11T04:11:58.092Z,0
2017-03-11T04:12:38.771Z,0
2017-03-11T04:13:19.427Z,0
2017-03-11T04:14:00.085Z,0
2017-03-11T04:14:40.746Z,0
2017-03-11T04:15:21.395Z,0
2017-03-11T04:16:02.047Z,0
2017-03-11T04:16:42.707Z,0
2017-03-11T04:17:23.339Z,0
2017-03-11T04:18:04.008Z,0
2017-03-11T04:18:44.663Z,0
2017-03-11T04:19:25.467Z,0
2017-03-11T04:20:06.006Z,0
2017-03-11T04:20:46.726Z,0
2017-03-11T04:21:27.351Z,0
2017-03-11T04:22:08.011Z,0
2017-03-11T04:22:48.681Z,0
2017-03-11T04:23:29.323Z,0
2017-03-11T04:24:09.974Z,0
2017-03-11T04:24:50.625Z,0
2017-03-11T04:25:31.293Z,0
2017-03-11T04:26:12.097Z,0
2017-03-11T04:26:52.794Z,0
2017-03-11T04:27:33.404Z,0
2017-03-11T04:28:14.064Z,0
2017-03-11T04:28:54.720Z,0
2017-03-11T04:29:35.377Z,0
2017-03-11T04:30:16.153Z,0
2017-03-11T04:30:56.747Z,0
2017-03-11T04:31:37.445Z,0
2017-03-11T04:32:18.087Z,0
2017-03-11T04:32:58.735Z,0
2017-03-11T04:33:39.405Z,0
2017-03-11T04:34:20.039Z,0
2017-03-11T04:35:00.714Z,0
2017-03-11T04:35:41.416Z,0
2017-03-11T04:36:22.050Z,0
2017-03-11T04:37:02.705Z,0
2017-03-11T04:37:43.366Z,0
2017-03-11T04:38:24.014Z,0
2017-03-11T04:39:04.668Z,0
2017-03-11T04:39:45.455Z,0
2017-03-11T04:40:26.080Z,0
2017-03-11T04:41:06.712Z,0
2017-03-11T04:41:47.350Z,0
2017-03-11T04:42:28.083Z,0
2017-03-11T04:43:08.705Z,0
2017-03-11T04:43:49.357Z,0
2017-03-11T04:44:30.002Z,0
2017-03-11T04:45:10.715Z,0
2017-03-11T04:45:51.298Z,0
2017-03-11T04:46:31.965Z,0
2017-03-11T04:47:12.612Z,0
2017-03-11T04:47:53.254Z,0
2017-03-11T04:48:33.909Z,0
2017-03-11T04:49:14.644Z,0
2017-03-11T04:49:55.329Z,0
2017-03-11T04:50:36.067Z,0
2017-03-11T04:51:16.703Z,0
2017-03-11T04:51:57.360Z,0
2017-03-11T04:52:37.992Z,0
2017-03-11T04:53:18.660Z,0
2017-03-11T04:53:59.320Z,0
2017-03-11T04:54:40.064Z,0
2017-03-11T04:55:20.756Z,0
2017-03-11T04:56:01.410Z,0
2017-03-11T04:56:42.114Z,0
2017-03-11T04:57:22.714Z,0
2017-03-11T04:58:03.377Z,0
2017-03-11T04:58:44.084Z,0
2017-03-11T04:59:24.725Z,0
2017-03-11T05:00:05.431Z,0
2017-03-11T05:00:46.063Z,0
2017-03-11T05:01:26.699Z,0
2017-03-11T05:02:07.386Z,4
2017-03-11T05:02:48.053Z,4
2017-03-11T05:03:28.788Z,4
2017-03-11T05:04:09.453Z,0
2017-03-11T05:04:50.084Z,0
2017-03-11T05:05:30.728Z,4
2017-03-11T05:06:11.485Z,4
2017-03-11T05:06:52.005Z,4
2017-03-11T05:07:32.717Z,4
2017-03-11T05:08:13.365Z,4
2017-03-11T05:08:54.031Z,4
2017-03-11T05:09:34.706Z,4
2017-03-11T05:10:15.432Z,8
2017-03-11T05:10:56.093Z,4
2017-03-11T05:11:36.743Z,8
2017-03-11T05:12:17.396Z,8
2017-03-11T05:12:58.064Z,8
2017-03-11T05:13:38.810Z,8
2017-03-11T05:14:19.366Z,12
2017-03-11T05:15:00.058Z,12
2017-03-11T05:15:40.679Z,16
2017-03-11T05:16:21.309Z,16
2017-03-11T05:17:01.983Z,20
2017-03-11T05:17:42.627Z,20
2017-03-11T05:18:23.259Z,24
2017-03-11T05:19:03.982Z,24
2017-03-11T05:19:44.689Z,28
2017-03-11T05:20:25.334Z,28
2017-03-11T05:21:05.974Z,36
2017-03-11T05:21:46.634Z,40
2017-03-11T05:22:27.249Z,40
2017-03-11T05:23:07.956Z,44
2017-03-11T05:23:48.588Z,44
2017-03-11T05:24:29.225Z,52
2017-03-11T05:25:09.890Z,52
2017-03-11T05:25:50.530Z,56
2017-03-11T05:26:31.172Z,60
2017-03-11T05:27:11.827Z,60
2017-03-11T05:27:52.455Z,60
2017-03-11T05:28:33.109Z,64
2017-03-11T05:29:13.766Z,64
2017-03-11T05:29:54.393Z,68
2017-03-11T05:30:35.038Z,68
2017-03-11T05:31:15.693Z,68
2017-03-11T05:31:56.325Z,72
2017-03-11T05:32:36.982Z,76
2017-03-11T05:33:17.657Z,84
2017-03-11T05:33:58.294Z,88
2017-03-11T05:34:38.952Z,92
2017-03-11T05:35:19.590Z,96
2017-03-11T05:36:00.254Z,100
2017-03-11T05:36:40.928Z,104
2017-03-11T05:37:21.562Z,108
2017-03-11T05:38:02.186Z,108
2017-03-11T05:38:42.823Z,112
2017-03-11T05:39:23.467Z,112
2017-03-11T05:40:04.124Z,116
2017-03-11T05:40:44.766Z,120
2017-03-11T05:41:25.407Z,124
2017-03-11T05:42:06.086Z,128
2017-03-11T05:42:46.734Z,136
2017-03-11T05:43:27.385Z,144
2017-03-11T05:44:08.021Z,148
2017-03-11T05:44:48.734Z,152
2017-03-11T05:45:29.400Z,160
2017-03-11T05:46:10.059Z,164
2017-03-11T05:46:50.654Z,168
2017-03-11T05:47:31.370Z,176
2017-03-11T05:48:12.011Z,180
2017-03-11T05:48:52.657Z,184
2017-03-11T05:49:33.315Z,192
2017-03-11T05:50:13.988Z,196
2017-03-11T05:50:54.580Z,200
2017-03-11T05:51:35.224Z,208
2017-03-11T05:52:15.866Z,212
2017-03-11T05:52:56.484Z,216
2017-03-11T05:53:37.120Z,224
2017-03-11T05:54:17.746Z,224
2017-03-11T05:54:58.389Z,232
2017-03-11T05:55:39.033Z,236
2017-03-11T05:56:19.825Z,240
2017-03-11T05:57:00.529Z,248
2017-03-11T05:57:48.953Z,256
2017-03-11T05:58:37.206Z,264
2017-03-11T05:59:26.674Z,280
2017-03-11T06:00:11.323Z,296
2017-03-11T06:00:59.138Z,312
2017-03-11T06:01:58.616Z,332
2017-03-11T06:02:48.266Z,352
2017-03-11T06:03:31.548Z,364
2017-03-11T06:04:12.228Z,380
2017-03-11T06:04:52.842Z,392
2017-03-11T06:05:33.744Z,404
2017-03-11T06:06:14.600Z,416
2017-03-11T06:06:55.626Z,424
2017-03-11T06:07:36.491Z,428
2017-03-11T06:08:17.198Z,436
2017-03-11T06:08:57.823Z,444
2017-03-11T06:09:38.709Z,448
2017-03-11T06:10:19.583Z,456
2017-03-11T06:11:00.456Z,468
2017-03-11T06:11:41.207Z,480
2017-03-11T06:12:21.837Z,496
2017-03-11T06:13:03.205Z,500
2017-03-11T06:13:44.825Z,512
2017-03-11T06:14:40.078Z,524
2017-03-11T06:15:22.565Z,536
2017-03-11T06:16:03.670Z,548
2017-03-11T06:16:44.930Z,556
2017-03-11T06:17:25.659Z,564
2017-03-11T06:18:06.336Z,568
2017-03-11T06:18:46.986Z,572
2017-03-11T06:19:30.235Z,576
2017-03-11T06:20:13.944Z,584
2017-03-11T06:20:56.645Z,592
2017-03-11T06:21:42.682Z,604
2017-03-11T06:22:25.868Z,612
2017-03-11T06:23:06.551Z,616
2017-03-11T06:23:47.334Z,624
2017-03-11T06:24:28.099Z,624
2017-03-11T06:25:08.660Z,632
2017-03-11T06:25:49.460Z,640
2017-03-11T06:26:30.094Z,648
2017-03-11T06:27:11.107Z,648
2017-03-11T06:27:51.786Z,652
2017-03-11T06:28:33.153Z,660
2017-03-11T06:29:21.337Z,680
2017-03-11T06:30:13.454Z,688
2017-03-11T06:31:06.725Z,704
2017-03-11T06:31:59.175Z,716
2017-03-11T06:32:44.993Z,732
2017-03-11T06:33:30.924Z,752
2017-03-11T06:34:11.565Z,772
2017-03-11T06:34:52.199Z,800
2017-03-11T06:35:32.813Z,824
2017-03-11T06:36:13.446Z,852
2017-03-11T06:36:54.064Z,884
2017-03-11T06:37:34.933Z,916
2017-03-11T06:38:17.359Z,940
2017-03-11T06:39:00.437Z,956
2017-03-11T06:39:41.053Z,976
2017-03-11T06:40:21.665Z,984
2017-03-11T06:41:02.332Z,996
2017-03-11T06:41:42.967Z,1004
2017-03-11T06:42:24.328Z,1020
2017-03-11T06:43:04.956Z,1036
2017-03-11T06:43:45.626Z,1052
2017-03-11T06:44:26.221Z,1088
2017-03-11T06:45:06.836Z,1116
2017-03-11T06:45:47.440Z,1168
2017-03-11T06:46:28.066Z,1224
2017-03-11T06:47:08.673Z,1236
2017-03-11T06:47:49.284Z,1304
2017-03-11T06:48:29.973Z,1364
2017-03-11T06:49:10.626Z,1412
2017-03-11T06:49:51.229Z,1448
2017-03-11T06:50:31.839Z,1524
2017-03-11T06:51:12.467Z,1580
2017-03-11T06:51:53.111Z,1572
2017-03-11T06:52:33.762Z,1604
2017-03-11T06:53:14.443Z,1640
2017-03-11T06:53:55.100Z,1616
2017-03-11T06:54:36.774Z,1628
2017-03-11T06:55:17.429Z,1636
2017-03-11T06:55:58.116Z,1676
2017-03-11T06:56:38.725Z,1652
2017-03-11T06:57:19.361Z,1676
2017-03-11T06:57:59.975Z,1700
2017-03-11T06:58:40.661Z,1708
2017-03-11T06:59:21.265Z,1732
2017-03-11T07:00:01.916Z,1752
2017-03-11T07:00:42.530Z,1728
2017-03-11T07:01:23.250Z,1740
2017-03-11T07:02:03.923Z,1748
2017-03-11T07:02:44.598Z,1756
2017-03-11T07:03:25.314Z,1760
2017-03-11T07:04:05.987Z,1772
2017-03-11T07:04:46.662Z,1788
2017-03-11T07:05:27.280Z,1792
2017-03-11T07:06:07.916Z,1816
2017-03-11T07:06:48.551Z,1856
2017-03-11T07:07:29.158Z,1912
2017-03-11T07:08:09.753Z,1956
2017-03-11T07:08:50.387Z,2008
2017-03-11T07:09:31.286Z,2028
2017-03-11T07:10:11.919Z,2024
2017-03-11T07:10:52.751Z,1956
2017-03-11T07:11:33.779Z,1928
2017-03-11T07:12:14.639Z,1884
2017-03-11T07:12:55.308Z,1844
2017-03-11T07:13:36.027Z,1860
2017-03-11T07:14:17.152Z,1876
2017-03-11T07:14:58.125Z,1888
2017-03-11T07:15:39.055Z,1900
2017-03-11T07:16:19.907Z,1896
2017-03-11T07:17:00.509Z,1912
2017-03-11T07:17:41.136Z,1928
2017-03-11T07:18:21.848Z,1952
2017-03-11T07:19:03.024Z,1952
2017-03-11T07:19:44.874Z,1916
2017-03-11T07:20:29.717Z,1812
2017-03-11T07:21:15.585Z,1732
2017-03-11T07:22:04.562Z,1752
2017-03-11T07:22:52.883Z,1788
2017-03-11T07:23:34.159Z,1924
2017-03-11T07:24:15.422Z,1996
2017-03-11T07:24:56.060Z,2056
2017-03-11T07:25:36.706Z,2056
2017-03-11T07:26:17.983Z,2080
2017-03-11T07:27:01.522Z,2236
2017-03-11T07:27:45.791Z,2464
2017-03-11T07:28:26.480Z,2632
2017-03-11T07:29:07.157Z,2736
2017-03-11T07:29:47.771Z,2836
2017-03-11T07:30:28.413Z,2892
2017-03-11T07:31:09.087Z,2896
2017-03-11T07:31:49.845Z,2916
2017-03-11T07:32:30.450Z,2932
2017-03-11T07:33:11.089Z,2964
2017-03-11T07:33:51.787Z,2972
2017-03-11T07:34:32.436Z,3048
2017-03-11T07:35:13.136Z,3084
2017-03-11T07:35:53.784Z,3136
2017-03-11T07:36:34.548Z,3188
2017-03-11T07:37:15.247Z,3244
2017-03-11T07:37:55.853Z,3192
2017-03-11T07:38:36.510Z,3192
2017-03-11T07:39:17.213Z,3172
2017-03-11T07:39:57.849Z,3144
2017-03-11T07:40:38.549Z,3168
2017-03-11T07:41:19.260Z,3180
2017-03-11T07:41:59.952Z,3256
2017-03-11T07:42:40.683Z,3316
2017-03-11T07:43:21.321Z,3372
2017-03-11T07:44:02.044Z,3328
2017-03-11T07:44:42.734Z,3300
2017-03-11T07:45:23.352Z,3288
2017-03-11T07:46:04.095Z,3328
2017-03-11T07:46:44.832Z,3336
2017-03-11T07:47:25.509Z,3336
2017-03-11T07:48:06.287Z,3332
2017-03-11T07:48:46.933Z,3284
2017-03-11T07:49:27.614Z,3256
2017-03-11T07:50:08.242Z,3220
2017-03-11T07:50:48.909Z,3248
2017-03-11T07:51:29.631Z,3316
2017-03-11T07:52:10.323Z,3408
2017-03-11T07:52:51.049Z,3516
2017-03-11T07:53:31.706Z,3644
2017-03-11T07:54:12.358Z,3744
2017-03-11T07:54:53.067Z,3856
2017-03-11T07:55:33.674Z,3976
2017-03-11T07:56:14.549Z,4148
2017-03-11T07:56:55.253Z,4312
2017-03-11T07:57:35.885Z,4476
2017-03-11T07:58:16.660Z,4712
2017-03-11T07:58:57.391Z,4928
2017-03-11T07:59:38.154Z,5080
2017-03-11T08:00:18.790Z,5808
2017-03-11T08:00:59.477Z,5548
2017-03-11T08:01:40.194Z,5768
2017-03-11T08:02:20.969Z,6000
2017-03-11T08:03:01.628Z,6564
2017-03-11T08:03:42.324Z,6300
2017-03-11T08:04:23.197Z,6488
2017-03-11T08:05:05.054Z,6776
2017-03-11T08:05:49.250Z,7140
2017-03-11T08:06:30.011Z,7628
2017-03-11T08:07:10.658Z,7832
2017-03-11T08:07:51.498Z,8224
2017-03-11T08:08:32.126Z,8340
2017-03-11T08:09:13.223Z,8800
2017-03-11T08:09:54.029Z,8340
2017-03-11T08:10:35.564Z,7676
2017-03-11T08:11:18.214Z,7452
2017-03-11T08:12:00.156Z,7400
2017-03-11T08:12:40.825Z,7500
2017-03-11T08:13:21.474Z,7444
2017-03-11T08:14:02.124Z,7340
2017-03-11T08:14:42.761Z,7772
2017-03-11T08:15:23.883Z,7304
2017-03-11T08:16:04.772Z,6852
2017-03-11T08:16:48.589Z,6208
2017-03-11T08:17:29.734Z,5692
2017-03-11T08:18:10.446Z,5292
2017-03-11T08:18:51.129Z,5124
2017-03-11T08:19:31.828Z,5000
2017-03-11T08:20:12.454Z,4892
2017-03-11T08:20:53.289Z,4836
2017-03-11T08:21:34.049Z,4820
2017-03-11T08:22:14.744Z,4828
2017-03-11T08:22:55.417Z,4860
2017-03-11T08:23:36.052Z,4904
2017-03-11T08:24:16.745Z,4836
2017-03-11T08:24:57.441Z,4840
2017-03-11T08:25:38.022Z,4772
2017-03-11T08:26:18.624Z,4688
2017-03-11T08:26:59.214Z,4668
2017-03-11T08:27:39.826Z,4620
2017-03-11T08:28:20.420Z,4688
2017-03-11T08:29:01.013Z,4536
2017-03-11T08:29:41.616Z,4480
2017-03-11T08:30:22.274Z,4396
2017-03-11T08:31:02.905Z,4328
2017-03-11T08:31:43.507Z,4348
2017-03-11T08:32:24.150Z,4428
2017-03-11T08:33:04.883Z,4552
2017-03-11T08:33:45.455Z,4712
2017-03-11T08:34:26.086Z,4884
2017-03-11T08:35:06.681Z,5092
2017-03-11T08:35:47.290Z,5360
2017-03-11T08:36:27.884Z,5576
2017-03-11T08:37:08.480Z,5756
2017-03-11T08:37:49.182Z,5896
2017-03-11T08:38:29.788Z,5996
2017-03-11T08:39:10.493Z,6052
2017-03-11T08:39:51.106Z,6108
2017-03-11T08:40:31.726Z,6136
2017-03-11T08:41:12.342Z,6152
2017-03-11T08:41:52.966Z,6132
2017-03-11T08:42:33.636Z,6120
2017-03-11T08:43:14.213Z,6088
2017-03-11T08:43:54.829Z,6080
2017-03-11T08:44:35.475Z,6104
2017-03-11T08:45:16.104Z,6152
2017-03-11T08:45:56.787Z,6220
2017-03-11T08:46:37.374Z,6296
2017-03-11T08:47:17.958Z,6368
2017-03-11T08:47:58.808Z,6444
2017-03-11T08:48:39.389Z,6524
2017-03-11T08:49:20.006Z,6600
2017-03-11T08:50:00.684Z,6700
2017-03-11T08:50:41.284Z,6768
2017-03-11T08:51:22.102Z,6824
2017-03-11T08:52:02.789Z,6900
2017-03-11T08:52:43.370Z,7048
2017-03-11T08:53:23.960Z,7248
2017-03-11T08:54:04.559Z,7524
2017-03-11T08:54:45.203Z,7780
2017-03-11T08:55:25.791Z,8024
2017-03-11T08:56:07.115Z,8412
2017-03-11T08:56:46.953Z,8616
2017-03-11T08:57:27.582Z,8876
2017-03-11T08:58:08.197Z,8992
2017-03-11T08:58:48.852Z,9080
2017-03-11T08:59:29.436Z,9472
2017-03-11T09:00:10.035Z,9180
2017-03-11T09:00:50.623Z,9004
2017-03-11T09:01:31.255Z,8872
2017-03-11T09:02:11.903Z,8684
2017-03-11T09:02:52.486Z,8524
2017-03-11T09:03:33.108Z,8380
2017-03-11T09:04:13.707Z,8228
2017-03-11T09:04:54.307Z,8076
2017-03-11T09:05:34.899Z,7928
2017-03-11T09:06:15.621Z,7788
2017-03-11T09:06:56.210Z,7644
2017-03-11T09:07:36.807Z,7548
2017-03-11T09:08:17.425Z,7444
2017-03-11T09:08:58.034Z,7340
2017-03-11T09:09:38.685Z,7248
2017-03-11T09:10:19.296Z,7132
2017-03-11T09:10:59.937Z,7032
2017-03-11T09:11:40.536Z,7004
2017-03-11T09:12:21.247Z,6960
2017-03-11T09:13:01.823Z,6928
2017-03-11T09:13:42.482Z,6904
2017-03-11T09:14:23.126Z,6872
2017-03-11T09:15:03.755Z,6864
2017-03-11T09:15:44.352Z,6852
2017-03-11T09:16:25.000Z,6856
2017-03-11T09:17:05.602Z,6860
2017-03-11T09:17:46.204Z,6828
2017-03-11T09:18:26.811Z,6776
2017-03-11T09:19:07.459Z,6692
2017-03-11T09:19:48.072Z,6624
2017-03-11T09:20:28.722Z,6452
2017-03-11T09:21:09.296Z,6372
2017-03-11T09:21:49.941Z,6284
2017-03-11T09:22:30.596Z,6076
2017-03-11T09:23:11.242Z,5968
2017-03-11T09:23:51.839Z,5916
2017-03-11T09:24:32.490Z,5920
2017-03-11T09:25:13.097Z,5900
2017-03-11T09:25:53.697Z,5900
2017-03-11T09:26:34.313Z,5932
2017-03-11T09:27:14.927Z,5872
2017-03-11T09:27:55.528Z,5780
2017-03-11T09:28:36.143Z,5724
2017-03-11T09:29:16.766Z,5636
2017-03-11T09:29:57.393Z,5576
2017-03-11T09:30:38.025Z,5532
2017-03-11T09:31:18.615Z,5548
2017-03-11T09:31:59.247Z,5560
2017-03-11T09:32:39.868Z,5636
2017-03-11T09:33:20.506Z,5580
2017-03-11T09:34:01.125Z,5528
2017-03-11T09:34:41.768Z,5516
2017-03-11T09:35:22.389Z,5468
2017-03-11T09:36:03.021Z,5424
2017-03-11T09:36:43.686Z,5356
2017-03-11T09:37:24.738Z,5276
2017-03-11T09:38:06.059Z,5200
2017-03-11T09:38:46.774Z,5128
2017-03-11T09:39:27.360Z,5072
2017-03-11T09:40:07.992Z,4988